Accueil
METAR-TAF:

METAR-TAF

Aéroports :

Baudette, Minnesota, États-Unis

latitude: 48-43-36N, longitude: 094-36-44W, altitude: 330 m

Observation

Le bulletin a été fait il y a 14 minutes, à 15:53 UTC
Vent 9 kt de ouest/nord-ouest
Température 23°C
Humidité 44%
Pression 1011 hPa
Visibilité: 16.1 km
Ciel clair

METAR: KBDE 021553Z AUTO 30009KT 10SM CLR 23/10 A2986 RMK AO2 SLP110 T02280100

Heure: 11:07 (16:07 UTC)


TAF: absent

Observations et prévisions météorologiques de plus de 4000 aéroports (messages METAR et TAF).

Les stations disponibles sont représentées par des disques jaunes et rouges sur la carte.

Passer la souris dessus pour voir le nom de la station.

Cliquer dessus pour voir les observations et prévisions météorologiques.

Pour changer de carte: cliquez sur les boutons verts avec une croix noire pour zoomer, sur le bouton vert avec un tiret pour effectuer un zoom arrière, ou sur les flèches vertes pour les cartes adjacentes.


METAR-TAF: